sensor_id;sensor_type;location;lat;lon;timestamp;P1;durP1;ratioP1;P2;durP2;ratioP2
48205;SDS011;33995;48.202;16.260;2023-04-09T00:02:20;16.20;;;14.50;;
48205;SDS011;33995;48.202;16.260;2023-04-09T00:04:48;14.97;;;13.50;;
48205;SDS011;33995;48.202;16.260;2023-04-09T00:07:15;15.77;;;14.17;;
48205;SDS011;33995;48.202;16.260;2023-04-09T00:09:42;15.90;;;14.30;;
48205;SDS011;33995;48.202;16.260;2023-04-09T00:12:09;16.30;;;14.60;;
48205;SDS011;33995;48.202;16.260;2023-04-09T00:14:36;15.53;;;13.93;;
48205;SDS011;33995;48.202;16.260;2023-04-09T00:17:03;15.60;;;14.00;;
48205;SDS011;33995;48.202;16.260;2023-04-09T00:19:29;15.83;;;14.23;;
48205;SDS011;33995;48.202;16.260;2023-04-09T00:21:56;15.43;;;13.87;;
48205;SDS011;33995;48.202;16.260;2023-04-09T00:24:23;15.67;;;13.97;;
48205;SDS011;33995;48.202;16.260;2023-04-09T00:26:50;14.90;;;13.40;;
48205;SDS011;33995;48.202;16.260;2023-04-09T00:29:18;16.33;;;14.70;;
48205;SDS011;33995;48.202;16.260;2023-04-09T00:31:45;15.87;;;14.27;;
48205;SDS011;33995;48.202;16.260;2023-04-09T00:34:13;15.70;;;14.10;;
48205;SDS011;33995;48.202;16.260;2023-04-09T00:36:40;15.90;;;14.30;;
48205;SDS011;33995;48.202;16.260;2023-04-09T00:39:07;15.57;;;14.00;;
48205;SDS011;33995;48.202;16.260;2023-04-09T00:41:34;15.80;;;14.20;;
48205;SDS011;33995;48.202;16.260;2023-04-09T00:44:01;16.50;;;14.83;;
48205;SDS011;33995;48.202;16.260;2023-04-09T00:46:28;16.40;;;14.70;;
48205;SDS011;33995;48.202;16.260;2023-04-09T00:48:56;15.60;;;14.00;;
48205;SDS011;33995;48.202;16.260;2023-04-09T00:51:23;15.20;;;13.70;;
48205;SDS011;33995;48.202;16.260;2023-04-09T00:53:50;16.57;;;14.90;;
48205;SDS011;33995;48.202;16.260;2023-04-09T00:56:19;15.20;;;13.50;;
48205;SDS011;33995;48.202;16.260;2023-04-09T00:58:48;16.20;;;14.50;;
48205;SDS011;33995;48.202;16.260;2023-04-09T01:01:16;15.23;;;13.63;;
48205;SDS011;33995;48.202;16.260;2023-04-09T01:03:43;15.87;;;14.27;;
48205;SDS011;33995;48.202;16.260;2023-04-09T01:06:23;14.87;;;13.47;;
48205;SDS011;33995;48.202;16.260;2023-04-09T01:09:04;15.53;;;14.03;;
48205;SDS011;33995;48.202;16.260;2023-04-09T01:11:42;14.77;;;13.27;;
48205;SDS011;33995;48.202;16.260;2023-04-09T01:14:30;15.93;;;14.23;;
48205;SDS011;33995;48.202;16.260;2023-04-09T01:17:17;15.50;;;13.87;;
48205;SDS011;33995;48.202;16.260;2023-04-09T01:19:58;15.47;;;13.80;;
48205;SDS011;33995;48.202;16.260;2023-04-09T01:28:36;15.00;;;13.50;;
48205;SDS011;33995;48.202;16.260;2023-04-09T01:31:10;14.77;;;13.27;;
48205;SDS011;33995;48.202;16.260;2023-04-09T01:33:43;15.10;;;13.60;;
48205;SDS011;33995;48.202;16.260;2023-04-09T01:36:10;14.67;;;13.17;;
48205;SDS011;33995;48.202;16.260;2023-04-09T01:38:40;14.80;;;13.30;;
48205;SDS011;33995;48.202;16.260;2023-04-09T01:41:09;14.10;;;12.70;;
48205;SDS011;33995;48.202;16.260;2023-04-09T01:43:40;13.90;;;12.60;;
48205;SDS011;33995;48.202;16.260;2023-04-09T01:46:09;15.10;;;13.50;;
48205;SDS011;33995;48.202;16.260;2023-04-09T01:48:37;14.07;;;12.67;;
48205;SDS011;33995;48.202;16.260;2023-04-09T01:51:04;15.30;;;13.10;;
48205;SDS011;33995;48.202;16.260;2023-04-09T01:53:32;14.90;;;13.30;;
48205;SDS011;33995;48.202;16.260;2023-04-09T01:55:59;13.80;;;12.47;;
48205;SDS011;33995;48.202;16.260;2023-04-09T01:58:26;14.70;;;13.20;;
48205;SDS011;33995;48.202;16.260;2023-04-09T02:03:43;13.07;;;11.77;;
48205;SDS011;33995;48.202;16.260;2023-04-09T02:08:52;14.17;;;12.77;;
48205;SDS011;33995;48.202;16.260;2023-04-09T02:11:22;13.87;;;12.47;;
48205;SDS011;33995;48.202;16.260;2023-04-09T02:13:52;13.80;;;12.43;;
48205;SDS011;33995;48.202;16.260;2023-04-09T02:16:22;13.33;;;12.03;;
48205;SDS011;33995;48.202;16.260;2023-04-09T02:18:52;13.63;;;12.23;;
48205;SDS011;33995;48.202;16.260;2023-04-09T02:21:21;13.57;;;12.27;;
48205;SDS011;33995;48.202;16.260;2023-04-09T02:23:49;13.47;;;12.17;;
48205;SDS011;33995;48.202;16.260;2023-04-09T02:26:16;15.43;;;13.83;;
48205;SDS011;33995;48.202;16.260;2023-04-09T02:28:44;14.37;;;12.97;;
48205;SDS011;33995;48.202;16.260;2023-04-09T02:31:11;14.77;;;13.17;;
48205;SDS011;33995;48.202;16.260;2023-04-09T02:33:38;13.63;;;12.27;;
48205;SDS011;33995;48.202;16.260;2023-04-09T02:36:05;14.83;;;13.30;;
48205;SDS011;33995;48.202;16.260;2023-04-09T02:38:32;13.17;;;11.87;;
48205;SDS011;33995;48.202;16.260;2023-04-09T02:40:59;14.07;;;12.67;;
48205;SDS011;33995;48.202;16.260;2023-04-09T02:43:26;13.40;;;12.10;;
48205;SDS011;33995;48.202;16.260;2023-04-09T02:45:53;13.53;;;12.23;;
48205;SDS011;33995;48.202;16.260;2023-04-09T02:48:20;13.90;;;12.60;;
48205;SDS011;33995;48.202;16.260;2023-04-09T02:50:47;13.77;;;12.40;;
48205;SDS011;33995;48.202;16.260;2023-04-09T02:53:14;13.47;;;12.07;;
48205;SDS011;33995;48.202;16.260;2023-04-09T02:55:41;13.07;;;11.67;;
48205;SDS011;33995;48.202;16.260;2023-04-09T02:58:08;14.00;;;12.60;;
48205;SDS011;33995;48.202;16.260;2023-04-09T03:00:35;13.80;;;12.43;;
48205;SDS011;33995;48.202;16.260;2023-04-09T03:03:03;13.27;;;11.93;;
48205;SDS011;33995;48.202;16.260;2023-04-09T03:05:30;13.53;;;12.13;;
48205;SDS011;33995;48.202;16.260;2023-04-09T03:07:57;13.23;;;11.93;;
48205;SDS011;33995;48.202;16.260;2023-04-09T03:10:24;13.23;;;11.93;;
48205;SDS011;33995;48.202;16.260;2023-04-09T03:12:51;12.90;;;11.70;;
48205;SDS011;33995;48.202;16.260;2023-04-09T03:15:18;13.23;;;11.93;;
48205;SDS011;33995;48.202;16.260;2023-04-09T03:17:45;13.50;;;12.20;;
48205;SDS011;33995;48.202;16.260;2023-04-09T03:20:12;13.40;;;12.10;;
48205;SDS011;33995;48.202;16.260;2023-04-09T03:22:39;13.77;;;12.37;;
48205;SDS011;33995;48.202;16.260;2023-04-09T03:25:18;13.37;;;12.07;;
48205;SDS011;33995;48.202;16.260;2023-04-09T03:27:49;13.37;;;11.80;;
48205;SDS011;33995;48.202;16.260;2023-04-09T03:30:23;13.27;;;11.97;;
48205;SDS011;33995;48.202;16.260;2023-04-09T03:32:50;13.53;;;12.20;;
48205;SDS011;33995;48.202;16.260;2023-04-09T03:35:19;14.13;;;12.70;;
48205;SDS011;33995;48.202;16.260;2023-04-09T03:37:46;13.47;;;12.17;;
48205;SDS011;33995;48.202;16.260;2023-04-09T03:40:16;13.87;;;12.47;;
48205;SDS011;33995;48.202;16.260;2023-04-09T03:42:43;14.33;;;12.83;;
48205;SDS011;33995;48.202;16.260;2023-04-09T03:45:13;13.33;;;12.03;;
48205;SDS011;33995;48.202;16.260;2023-04-09T03:47:44;13.33;;;12.07;;
48205;SDS011;33995;48.202;16.260;2023-04-09T03:50:11;13.90;;;12.50;;
48205;SDS011;33995;48.202;16.260;2023-04-09T03:52:45;13.60;;;12.20;;
48205;SDS011;33995;48.202;16.260;2023-04-09T03:55:12;13.30;;;11.93;;
48205;SDS011;33995;48.202;16.260;2023-04-09T03:57:39;12.50;;;11.20;;
48205;SDS011;33995;48.202;16.260;2023-04-09T04:00:10;16.10;;;14.40;;
48205;SDS011;33995;48.202;16.260;2023-04-09T04:02:50;15.23;;;13.63;;
48205;SDS011;33995;48.202;16.260;2023-04-09T04:05:37;16.50;;;14.63;;
48205;SDS011;33995;48.202;16.260;2023-04-09T04:08:08;16.30;;;14.60;;
48205;SDS011;33995;48.202;16.260;2023-04-09T04:10:34;17.77;;;15.93;;
48205;SDS011;33995;48.202;16.260;2023-04-09T04:13:02;17.38;;;15.77;;
48205;SDS011;33995;48.202;16.260;2023-04-09T04:15:44;13.90;;;12.50;;
48205;SDS011;33995;48.202;16.260;2023-04-09T04:18:12;13.50;;;12.10;;
48205;SDS011;33995;48.202;16.260;2023-04-09T04:20:46;13.20;;;11.90;;
48205;SDS011;33995;48.202;16.260;2023-04-09T04:23:13;13.73;;;12.33;;
48205;SDS011;33995;48.202;16.260;2023-04-09T04:25:50;13.67;;;12.30;;
48205;SDS011;33995;48.202;16.260;2023-04-09T04:28:24;13.47;;;12.07;;
48205;SDS011;33995;48.202;16.260;2023-04-09T04:30:52;13.30;;;12.00;;
48205;SDS011;33995;48.202;16.260;2023-04-09T04:33:19;11.83;;;10.67;;
48205;SDS011;33995;48.202;16.260;2023-04-09T04:35:50;12.53;;;11.33;;
48205;SDS011;33995;48.202;16.260;2023-04-09T04:38:43;13.40;;;12.10;;
48205;SDS011;33995;48.202;16.260;2023-04-09T04:41:16;13.97;;;12.67;;
48205;SDS011;33995;48.202;16.260;2023-04-09T04:43:50;13.00;;;11.70;;
48205;SDS011;33995;48.202;16.260;2023-04-09T04:46:24;13.17;;;11.90;;
48205;SDS011;33995;48.202;16.260;2023-04-09T04:48:51;13.60;;;12.30;;
48205;SDS011;33995;48.202;16.260;2023-04-09T04:51:19;13.30;;;12.00;;
48205;SDS011;33995;48.202;16.260;2023-04-09T04:53:59;12.80;;;11.50;;
48205;SDS011;33995;48.202;16.260;2023-04-09T04:56:26;13.13;;;11.80;;
48205;SDS011;33995;48.202;16.260;2023-04-09T04:59:00;12.07;;;10.87;;
48205;SDS011;33995;48.202;16.260;2023-04-09T05:01:34;13.30;;;11.47;;
48205;SDS011;33995;48.202;16.260;2023-04-09T05:04:05;13.17;;;11.87;;
48205;SDS011;33995;48.202;16.260;2023-04-09T05:06:35;12.70;;;11.40;;
48205;SDS011;33995;48.202;16.260;2023-04-09T05:09:06;13.17;;;11.87;;
48205;SDS011;33995;48.202;16.260;2023-04-09T05:11:43;13.60;;;12.27;;
48205;SDS011;33995;48.202;16.260;2023-04-09T05:14:16;13.33;;;12.03;;
48205;SDS011;33995;48.202;16.260;2023-04-09T05:16:43;12.87;;;11.57;;
48205;SDS011;33995;48.202;16.260;2023-04-09T05:19:10;12.53;;;11.33;;
48205;SDS011;33995;48.202;16.260;2023-04-09T05:21:37;12.60;;;11.40;;
48205;SDS011;33995;48.202;16.260;2023-04-09T05:24:05;12.40;;;11.20;;
48205;SDS011;33995;48.202;16.260;2023-04-09T05:26:33;11.73;;;10.53;;
48205;SDS011;33995;48.202;16.260;2023-04-09T05:29:01;11.47;;;10.07;;
48205;SDS011;33995;48.202;16.260;2023-04-09T05:31:28;11.23;;;10.13;;
48205;SDS011;33995;48.202;16.260;2023-04-09T05:34:03;10.97;;;9.87;;
48205;SDS011;33995;48.202;16.260;2023-04-09T05:36:42;11.57;;;10.47;;
48205;SDS011;33995;48.202;16.260;2023-04-09T05:39:10;11.77;;;10.67;;
48205;SDS011;33995;48.202;16.260;2023-04-09T05:41:37;12.40;;;11.20;;
48205;SDS011;33995;48.202;16.260;2023-04-09T05:44:22;11.23;;;10.13;;
48205;SDS011;33995;48.202;16.260;2023-04-09T05:46:54;10.90;;;9.80;;
48205;SDS011;33995;48.202;16.260;2023-04-09T05:49:27;12.13;;;10.93;;
48205;SDS011;33995;48.202;16.260;2023-04-09T05:51:55;11.53;;;10.43;;
48205;SDS011;33995;48.202;16.260;2023-04-09T05:54:25;11.80;;;10.60;;
48205;SDS011;33995;48.202;16.260;2023-04-09T05:56:53;10.90;;;9.80;;
48205;SDS011;33995;48.202;16.260;2023-04-09T05:59:20;12.77;;;11.47;;
48205;SDS011;33995;48.202;16.260;2023-04-09T06:01:47;12.63;;;11.33;;
48205;SDS011;33995;48.202;16.260;2023-04-09T06:04:14;13.50;;;12.20;;
48205;SDS011;33995;48.202;16.260;2023-04-09T06:06:42;12.93;;;11.50;;
48205;SDS011;33995;48.202;16.260;2023-04-09T06:09:09;12.93;;;11.63;;
48205;SDS011;33995;48.202;16.260;2023-04-09T06:11:36;13.10;;;11.80;;
48205;SDS011;33995;48.202;16.260;2023-04-09T06:14:03;12.90;;;11.60;;
48205;SDS011;33995;48.202;16.260;2023-04-09T06:16:31;12.90;;;11.63;;
48205;SDS011;33995;48.202;16.260;2023-04-09T06:18:58;15.30;;;13.70;;
48205;SDS011;33995;48.202;16.260;2023-04-09T06:21:26;13.37;;;11.97;;
48205;SDS011;33995;48.202;16.260;2023-04-09T06:23:53;13.47;;;12.07;;
48205;SDS011;33995;48.202;16.260;2023-04-09T06:26:20;13.33;;;12.00;;
48205;SDS011;33995;48.202;16.260;2023-04-09T06:28:47;13.40;;;12.10;;
48205;SDS011;33995;48.202;16.260;2023-04-09T06:31:14;13.03;;;11.77;;
48205;SDS011;33995;48.202;16.260;2023-04-09T06:33:41;14.40;;;12.90;;
48205;SDS011;33995;48.202;16.260;2023-04-09T06:36:08;16.43;;;14.73;;
48205;SDS011;33995;48.202;16.260;2023-04-09T06:38:36;15.00;;;13.50;;
48205;SDS011;33995;48.202;16.260;2023-04-09T06:41:03;14.40;;;13.00;;
48205;SDS011;33995;48.202;16.260;2023-04-09T06:43:33;13.50;;;12.13;;
48205;SDS011;33995;48.202;16.260;2023-04-09T06:46:02;15.83;;;14.23;;
48205;SDS011;33995;48.202;16.260;2023-04-09T06:48:29;15.10;;;13.50;;
48205;SDS011;33995;48.202;16.260;2023-04-09T06:50:56;14.93;;;13.43;;
48205;SDS011;33995;48.202;16.260;2023-04-09T06:53:23;14.87;;;13.43;;
48205;SDS011;33995;48.202;16.260;2023-04-09T06:55:50;15.67;;;14.07;;
48205;SDS011;33995;48.202;16.260;2023-04-09T06:58:18;15.53;;;13.90;;
48205;SDS011;33995;48.202;16.260;2023-04-09T07:00:46;15.53;;;13.93;;
48205;SDS011;33995;48.202;16.260;2023-04-09T07:03:13;14.97;;;13.47;;
48205;SDS011;33995;48.202;16.260;2023-04-09T07:05:41;16.40;;;14.70;;
48205;SDS011;33995;48.202;16.260;2023-04-09T07:08:08;15.60;;;14.00;;
48205;SDS011;33995;48.202;16.260;2023-04-09T07:10:35;19.27;;;17.27;;
48205;SDS011;33995;48.202;16.260;2023-04-09T07:13:02;17.90;;;16.00;;
48205;SDS011;33995;48.202;16.260;2023-04-09T07:15:29;16.93;;;15.17;;
48205;SDS011;33995;48.202;16.260;2023-04-09T07:17:56;24.33;;;21.73;;
48205;SDS011;33995;48.202;16.260;2023-04-09T07:20:23;24.57;;;20.80;;
48205;SDS011;33995;48.202;16.260;2023-04-09T07:22:50;21.97;;;19.57;;
48205;SDS011;33995;48.202;16.260;2023-04-09T07:25:17;18.43;;;16.53;;
48205;SDS011;33995;48.202;16.260;2023-04-09T07:27:44;20.43;;;18.33;;
48205;SDS011;33995;48.202;16.260;2023-04-09T07:30:12;19.43;;;17.43;;
48205;SDS011;33995;48.202;16.260;2023-04-09T07:32:39;17.80;;;16.07;;
48205;SDS011;33995;48.202;16.260;2023-04-09T07:35:07;20.17;;;18.07;;
48205;SDS011;33995;48.202;16.260;2023-04-09T07:37:37;18.67;;;16.77;;
48205;SDS011;33995;48.202;16.260;2023-04-09T07:40:04;19.87;;;17.80;;
48205;SDS011;33995;48.202;16.260;2023-04-09T07:42:32;19.30;;;17.30;;
48205;SDS011;33995;48.202;16.260;2023-04-09T07:44:59;18.73;;;16.83;;
48205;SDS011;33995;48.202;16.260;2023-04-09T07:47:26;20.70;;;18.50;;
48205;SDS011;33995;48.202;16.260;2023-04-09T07:49:53;22.20;;;19.90;;
48205;SDS011;33995;48.202;16.260;2023-04-09T07:52:20;20.40;;;18.30;;
48205;SDS011;33995;48.202;16.260;2023-04-09T07:54:47;19.33;;;17.33;;
48205;SDS011;33995;48.202;16.260;2023-04-09T07:57:14;19.70;;;17.60;;
48205;SDS011;33995;48.202;16.260;2023-04-09T07:59:42;21.17;;;18.97;;
48205;SDS011;33995;48.202;16.260;2023-04-09T08:02:09;22.00;;;19.73;;
48205;SDS011;33995;48.202;16.260;2023-04-09T08:04:40;20.87;;;18.77;;
48205;SDS011;33995;48.202;16.260;2023-04-09T08:07:08;18.23;;;16.33;;
48205;SDS011;33995;48.202;16.260;2023-04-09T08:09:35;19.10;;;17.10;;
48205;SDS011;33995;48.202;16.260;2023-04-09T08:12:02;20.10;;;18.03;;
48205;SDS011;33995;48.202;16.260;2023-04-09T08:14:29;22.40;;;20.07;;
48205;SDS011;33995;48.202;16.260;2023-04-09T08:16:56;24.60;;;22.20;;
48205;SDS011;33995;48.202;16.260;2023-04-09T08:19:23;23.37;;;20.97;;
48205;SDS011;33995;48.202;16.260;2023-04-09T08:21:50;21.30;;;19.00;;
48205;SDS011;33995;48.202;16.260;2023-04-09T08:24:17;20.33;;;18.33;;
48205;SDS011;33995;48.202;16.260;2023-04-09T08:26:44;20.90;;;18.80;;
48205;SDS011;33995;48.202;16.260;2023-04-09T08:29:12;20.37;;;18.27;;
48205;SDS011;33995;48.202;16.260;2023-04-09T08:31:40;21.40;;;19.20;;
48205;SDS011;33995;48.202;16.260;2023-04-09T08:34:07;19.30;;;17.30;;
48205;SDS011;33995;48.202;16.260;2023-04-09T08:36:34;18.93;;;16.97;;
48205;SDS011;33995;48.202;16.260;2023-04-09T08:39:01;18.27;;;16.43;;
48205;SDS011;33995;48.202;16.260;2023-04-09T08:41:29;18.97;;;17.03;;
48205;SDS011;33995;48.202;16.260;2023-04-09T08:43:56;18.87;;;16.97;;
48205;SDS011;33995;48.202;16.260;2023-04-09T08:46:25;18.03;;;16.23;;
48205;SDS011;33995;48.202;16.260;2023-04-09T08:48:53;17.97;;;16.07;;
48205;SDS011;33995;48.202;16.260;2023-04-09T08:51:22;16.27;;;14.70;;
48205;SDS011;33995;48.202;16.260;2023-04-09T08:53:58;17.13;;;15.43;;
48205;SDS011;33995;48.202;16.260;2023-04-09T08:56:30;15.37;;;13.77;;
48205;SDS011;33995;48.202;16.260;2023-04-09T08:58:57;17.00;;;15.30;;
48205;SDS011;33995;48.202;16.260;2023-04-09T09:01:25;17.80;;;16.10;;
48205;SDS011;33995;48.202;16.260;2023-04-09T09:04:00;15.87;;;14.30;;
48205;SDS011;33995;48.202;16.260;2023-04-09T09:06:30;18.10;;;16.30;;
48205;SDS011;33995;48.202;16.260;2023-04-09T09:09:08;16.70;;;15.00;;
48205;SDS011;33995;48.202;16.260;2023-04-09T09:11:42;18.27;;;16.43;;
48205;SDS011;33995;48.202;16.260;2023-04-09T09:14:14;16.10;;;14.50;;
48205;SDS011;33995;48.202;16.260;2023-04-09T09:21:56;16.03;;;14.43;;
48205;SDS011;33995;48.202;16.260;2023-04-09T09:24:30;16.83;;;15.13;;
48205;SDS011;33995;48.202;16.260;2023-04-09T09:26:59;16.53;;;14.83;;
48205;SDS011;33995;48.202;16.260;2023-04-09T09:29:28;15.67;;;14.13;;
48205;SDS011;33995;48.202;16.260;2023-04-09T09:31:55;16.37;;;14.80;;
48205;SDS011;33995;48.202;16.260;2023-04-09T09:34:23;17.17;;;15.37;;
48205;SDS011;33995;48.202;16.260;2023-04-09T09:36:51;18.23;;;16.43;;
48205;SDS011;33995;48.202;16.260;2023-04-09T09:39:18;18.47;;;16.57;;
48205;SDS011;33995;48.202;16.260;2023-04-09T09:41:47;21.20;;;19.03;;
48205;SDS011;33995;48.202;16.260;2023-04-09T09:44:32;15.80;;;14.27;;
48205;SDS011;33995;48.202;16.260;2023-04-09T09:46:59;14.70;;;13.20;;
48205;SDS011;33995;48.202;16.260;2023-04-09T09:49:28;13.63;;;12.23;;
48205;SDS011;33995;48.202;16.260;2023-04-09T09:51:56;14.40;;;13.00;;
48205;SDS011;33995;48.202;16.260;2023-04-09T09:54:28;13.87;;;12.47;;
48205;SDS011;33995;48.202;16.260;2023-04-09T09:57:05;14.40;;;12.90;;
48205;SDS011;33995;48.202;16.260;2023-04-09T09:59:39;14.33;;;12.83;;
48205;SDS011;33995;48.202;16.260;2023-04-09T10:02:12;14.40;;;13.00;;
48205;SDS011;33995;48.202;16.260;2023-04-09T10:04:44;13.07;;;11.77;;
48205;SDS011;33995;48.202;16.260;2023-04-09T10:07:14;13.70;;;12.30;;
48205;SDS011;33995;48.202;16.260;2023-04-09T10:09:44;14.77;;;13.37;;
48205;SDS011;33995;48.202;16.260;2023-04-09T10:12:14;15.73;;;14.23;;
48205;SDS011;33995;48.202;16.260;2023-04-09T10:14:42;15.30;;;13.73;;
48205;SDS011;33995;48.202;16.260;2023-04-09T10:17:10;17.23;;;15.43;;
48205;SDS011;33995;48.202;16.260;2023-04-09T10:19:39;15.77;;;14.17;;
48205;SDS011;33995;48.202;16.260;2023-04-09T10:22:10;14.60;;;13.13;;
48205;SDS011;33995;48.202;16.260;2023-04-09T10:24:39;14.33;;;12.93;;
48205;SDS011;33995;48.202;16.260;2023-04-09T10:27:10;15.70;;;14.20;;
48205;SDS011;33995;48.202;16.260;2023-04-09T10:29:42;15.90;;;14.23;;
48205;SDS011;33995;48.202;16.260;2023-04-09T10:32:10;17.67;;;15.57;;
48205;SDS011;33995;48.202;16.260;2023-04-09T10:34:38;16.33;;;14.63;;
48205;SDS011;33995;48.202;16.260;2023-04-09T10:37:07;16.77;;;15.07;;
48205;SDS011;33995;48.202;16.260;2023-04-09T10:39:40;16.60;;;14.90;;
48205;SDS011;33995;48.202;16.260;2023-04-09T10:42:12;16.00;;;14.40;;
48205;SDS011;33995;48.202;16.260;2023-04-09T10:44:41;17.67;;;15.87;;
48205;SDS011;33995;48.202;16.260;2023-04-09T10:47:09;16.70;;;14.97;;
48205;SDS011;33995;48.202;16.260;2023-04-09T10:49:40;16.93;;;15.23;;
48205;SDS011;33995;48.202;16.260;2023-04-09T10:52:09;16.27;;;14.57;;
48205;SDS011;33995;48.202;16.260;2023-04-09T10:54:40;16.40;;;14.70;;
48205;SDS011;33995;48.202;16.260;2023-04-09T10:57:12;15.40;;;13.80;;
48205;SDS011;33995;48.202;16.260;2023-04-09T10:59:50;15.40;;;13.80;;
48205;SDS011;33995;48.202;16.260;2023-04-09T11:05:32;19.00;;;16.90;;
48205;SDS011;33995;48.202;16.260;2023-04-09T11:08:07;18.43;;;16.53;;
48205;SDS011;33995;48.202;16.260;2023-04-09T11:10:40;17.77;;;15.97;;
48205;SDS011;33995;48.202;16.260;2023-04-09T11:13:13;18.90;;;17.00;;
48205;SDS011;33995;48.202;16.260;2023-04-09T11:15:42;19.00;;;17.00;;
48205;SDS011;33995;48.202;16.260;2023-04-09T11:18:14;19.73;;;17.63;;
48205;SDS011;33995;48.202;16.260;2023-04-09T11:20:45;20.00;;;17.93;;
48205;SDS011;33995;48.202;16.260;2023-04-09T11:23:12;17.97;;;16.07;;
48205;SDS011;33995;48.202;16.260;2023-04-09T11:25:39;18.23;;;16.33;;
48205;SDS011;33995;48.202;16.260;2023-04-09T11:28:06;18.37;;;16.13;;
48205;SDS011;33995;48.202;16.260;2023-04-09T11:30:34;19.43;;;17.33;;
48205;SDS011;33995;48.202;16.260;2023-04-09T11:33:02;18.53;;;16.63;;
48205;SDS011;33995;48.202;16.260;2023-04-09T11:35:32;16.03;;;14.37;;
48205;SDS011;33995;48.202;16.260;2023-04-09T11:37:59;17.27;;;15.47;;
48205;SDS011;33995;48.202;16.260;2023-04-09T11:40:27;16.07;;;14.47;;
48205;SDS011;33995;48.202;16.260;2023-04-09T11:42:54;16.47;;;14.60;;
48205;SDS011;33995;48.202;16.260;2023-04-09T11:45:26;16.00;;;14.37;;
48205;SDS011;33995;48.202;16.260;2023-04-09T11:47:55;15.93;;;14.33;;
48205;SDS011;33995;48.202;16.260;2023-04-09T11:50:23;16.10;;;14.40;;
48205;SDS011;33995;48.202;16.260;2023-04-09T11:52:50;16.70;;;15.10;;
48205;SDS011;33995;48.202;16.260;2023-04-09T11:55:27;15.60;;;14.00;;
48205;SDS011;33995;48.202;16.260;2023-04-09T11:57:58;13.43;;;12.13;;
48205;SDS011;33995;48.202;16.260;2023-04-09T12:00:26;12.77;;;11.47;;
48205;SDS011;33995;48.202;16.260;2023-04-09T12:02:58;13.43;;;12.10;;
48205;SDS011;33995;48.202;16.260;2023-04-09T12:05:34;13.60;;;12.20;;
48205;SDS011;33995;48.202;16.260;2023-04-09T12:08:03;13.10;;;11.80;;
48205;SDS011;33995;48.202;16.260;2023-04-09T12:10:33;11.70;;;10.50;;
48205;SDS011;33995;48.202;16.260;2023-04-09T12:13:04;12.07;;;10.87;;
48205;SDS011;33995;48.202;16.260;2023-04-09T12:15:33;13.03;;;11.77;;
48205;SDS011;33995;48.202;16.260;2023-04-09T12:18:02;14.33;;;12.93;;
48205;SDS011;33995;48.202;16.260;2023-04-09T12:20:30;15.13;;;13.63;;
48205;SDS011;33995;48.202;16.260;2023-04-09T12:23:02;15.70;;;14.10;;
48205;SDS011;33995;48.202;16.260;2023-04-09T12:25:48;15.00;;;13.50;;
48205;SDS011;33995;48.202;16.260;2023-04-09T12:28:16;15.07;;;13.47;;
48205;SDS011;33995;48.202;16.260;2023-04-09T12:30:44;14.47;;;13.07;;
48205;SDS011;33995;48.202;16.260;2023-04-09T12:33:11;15.33;;;13.83;;
48205;SDS011;33995;48.202;16.260;2023-04-09T12:35:38;13.33;;;12.03;;
48205;SDS011;33995;48.202;16.260;2023-04-09T12:38:05;12.23;;;11.03;;
48205;SDS011;33995;48.202;16.260;2023-04-09T12:40:35;11.00;;;10.00;;
48205;SDS011;33995;48.202;16.260;2023-04-09T12:43:03;10.43;;;9.43;;
48205;SDS011;33995;48.202;16.260;2023-04-09T12:45:30;10.43;;;9.43;;
48205;SDS011;33995;48.202;16.260;2023-04-09T12:47:58;11.10;;;10.00;;
48205;SDS011;33995;48.202;16.260;2023-04-09T12:50:25;11.60;;;10.50;;
48205;SDS011;33995;48.202;16.260;2023-04-09T12:52:52;12.30;;;11.10;;
48205;SDS011;33995;48.202;16.260;2023-04-09T12:55:19;11.90;;;10.70;;
48205;SDS011;33995;48.202;16.260;2023-04-09T12:57:48;12.07;;;10.87;;
48205;SDS011;33995;48.202;16.260;2023-04-09T13:00:15;12.47;;;11.27;;
48205;SDS011;33995;48.202;16.260;2023-04-09T13:02:42;11.97;;;10.80;;
48205;SDS011;33995;48.202;16.260;2023-04-09T13:05:10;13.00;;;11.70;;
48205;SDS011;33995;48.202;16.260;2023-04-09T13:07:37;12.03;;;10.83;;
48205;SDS011;33995;48.202;16.260;2023-04-09T13:10:08;12.73;;;11.53;;
48205;SDS011;33995;48.202;16.260;2023-04-09T13:12:35;13.37;;;12.07;;
48205;SDS011;33995;48.202;16.260;2023-04-09T13:15:02;13.00;;;11.70;;
48205;SDS011;33995;48.202;16.260;2023-04-09T13:17:30;13.43;;;12.13;;
48205;SDS011;33995;48.202;16.260;2023-04-09T13:19:57;13.77;;;12.37;;
48205;SDS011;33995;48.202;16.260;2023-04-09T13:22:24;13.87;;;12.57;;
48205;SDS011;33995;48.202;16.260;2023-04-09T13:24:51;13.70;;;12.40;;
48205;SDS011;33995;48.202;16.260;2023-04-09T13:27:18;14.33;;;12.90;;
48205;SDS011;33995;48.202;16.260;2023-04-09T13:29:45;13.27;;;11.97;;
48205;SDS011;33995;48.202;16.260;2023-04-09T13:32:12;13.80;;;12.50;;
48205;SDS011;33995;48.202;16.260;2023-04-09T13:34:39;13.63;;;12.33;;
48205;SDS011;33995;48.202;16.260;2023-04-09T13:37:06;14.83;;;13.33;;
48205;SDS011;33995;48.202;16.260;2023-04-09T13:39:33;15.30;;;13.70;;
48205;SDS011;33995;48.202;16.260;2023-04-09T13:42:00;15.00;;;13.50;;
48205;SDS011;33995;48.202;16.260;2023-04-09T13:44:35;14.07;;;12.67;;
48205;SDS011;33995;48.202;16.260;2023-04-09T13:47:02;13.63;;;12.33;;
48205;SDS011;33995;48.202;16.260;2023-04-09T13:49:29;14.60;;;13.10;;
48205;SDS011;33995;48.202;16.260;2023-04-09T13:51:56;14.30;;;12.87;;
48205;SDS011;33995;48.202;16.260;2023-04-09T13:54:23;14.50;;;13.10;;
48205;SDS011;33995;48.202;16.260;2023-04-09T13:56:50;14.63;;;13.13;;
48205;SDS011;33995;48.202;16.260;2023-04-09T13:59:17;14.70;;;13.20;;
48205;SDS011;33995;48.202;16.260;2023-04-09T14:01:44;16.57;;;14.87;;
48205;SDS011;33995;48.202;16.260;2023-04-09T14:04:11;14.50;;;13.10;;
48205;SDS011;33995;48.202;16.260;2023-04-09T14:06:38;16.20;;;14.60;;
48205;SDS011;33995;48.202;16.260;2023-04-09T14:09:07;15.47;;;13.87;;
48205;SDS011;33995;48.202;16.260;2023-04-09T14:11:54;16.07;;;14.47;;
48205;SDS011;33995;48.202;16.260;2023-04-09T14:14:40;15.80;;;14.27;;
48205;SDS011;33995;48.202;16.260;2023-04-09T14:17:27;16.37;;;14.77;;
48205;SDS011;33995;48.202;16.260;2023-04-09T14:20:15;16.97;;;15.27;;
48205;SDS011;33995;48.202;16.260;2023-04-09T14:23:04;15.03;;;13.53;;
48205;SDS011;33995;48.202;16.260;2023-04-09T14:25:51;16.70;;;15.00;;
48205;SDS011;33995;48.202;16.260;2023-04-09T14:28:38;17.30;;;15.50;;
48205;SDS011;33995;48.202;16.260;2023-04-09T14:31:06;16.87;;;15.10;;
48205;SDS011;33995;48.202;16.260;2023-04-09T14:33:33;16.30;;;14.60;;
48205;SDS011;33995;48.202;16.260;2023-04-09T14:36:00;17.57;;;15.70;;
48205;SDS011;33995;48.202;16.260;2023-04-09T14:38:27;16.50;;;14.83;;
48205;SDS011;33995;48.202;16.260;2023-04-09T14:40:54;15.90;;;14.40;;
48205;SDS011;33995;48.202;16.260;2023-04-09T14:43:21;16.73;;;15.00;;